Time;durP1;ratioP1;P1;durP2;ratioP2;P2;SDS_P1;SDS_P2;PMS_P1;PMS_P2;Temp;Humidity;BMP_temperature;BMP_pressure;BME280_temperature;BME280_humidity;BME280_pressure;Samples;Min_cycle;Max_cycle;Signal;HPM_P1;HPM_P2
2021/09/04 00:01:36;;;;;;;2.58;1.95;;;14.90;81.00;;;;;;5134332;27;20102;-76
2021/09/04 00:04:02;;;;;;;2.67;2.15;;;14.90;81.10;;;;;;5115721;28;20034;-77
2021/09/04 00:06:28;;;;;;;1.73;1.23;;;14.90;81.20;;;;;;5133611;28;20046;-77
2021/09/04 00:08:53;;;;;;;2.05;1.48;;;14.90;81.30;;;;;;5134263;28;20031;-77
2021/09/04 00:11:19;;;;;;;2.30;1.80;;;14.80;81.30;;;;;;5134143;28;20482;-76
2021/09/04 00:13:45;;;;;;;2.42;1.33;;;14.80;81.30;;;;;;5134277;28;20374;-76
2021/09/04 00:16:10;;;;;;;2.00;1.50;;;14.80;81.30;;;;;;5115797;28;20024;-76
2021/09/04 00:18:36;;;;;;;2.78;1.50;;;14.80;81.30;;;;;;5133746;28;20027;-77
2021/09/04 00:21:02;;;;;;;2.80;1.30;;;14.80;81.40;;;;;;5133572;28;20015;-77
2021/09/04 00:23:28;;;;;;;2.67;1.70;;;14.80;81.30;;;;;;5115654;28;20049;-78
2021/09/04 00:25:53;;;;;;;2.00;1.42;;;14.70;81.40;;;;;;5119329;27;20064;-78
2021/09/04 00:28:19;;;;;;;2.63;1.92;;;14.70;81.40;;;;;;5138097;27;20034;-75
2021/09/04 00:30:45;;;;;;;2.47;1.38;;;14.70;81.50;;;;;;5138080;27;20019;-77
2021/09/04 00:33:10;;;;;;;1.95;1.48;;;14.60;81.50;;;;;;5119561;27;20121;-77
2021/09/04 00:35:36;;;;;;;1.67;1.52;;;14.60;81.50;;;;;;5137613;27;20490;-77
2021/09/04 00:38:01;;;;;;;1.73;1.15;;;14.60;81.60;;;;;;5138056;27;20023;-76
2021/09/04 00:40:27;;;;;;;2.70;1.80;;;14.60;81.60;;;;;;5137866;27;20034;-77
2021/09/04 00:42:52;;;;;;;2.47;1.63;;;14.60;81.50;;;;;;5119375;27;20031;-76
2021/09/04 00:45:18;;;;;;;2.00;1.40;;;14.60;81.50;;;;;;5137953;27;20019;-76
2021/09/04 00:48:10;;;;;;;2.55;1.92;;;14.50;81.50;;;;;;5137735;27;20027;-76
2021/09/04 00:50:36;;;;;;;3.05;1.50;;;14.50;81.50;;;;;;5134045;27;20039;-77
2021/09/04 00:53:03;;;;;;;2.78;1.67;;;14.50;81.60;;;;;;5137599;27;20031;-78
2021/09/04 00:55:29;;;;;;;3.03;2.05;;;14.50;81.70;;;;;;5137848;27;20371;-78
2021/09/04 00:57:56;;;;;;;2.60;1.70;;;14.40;81.60;;;;;;5137641;27;20019;-77
2021/09/04 01:00:22;;;;;;;2.38;1.17;;;14.40;81.80;;;;;;5137570;27;20023;-76
2021/09/04 01:02:48;;;;;;;2.25;1.55;;;14.30;81.80;;;;;;5136818;27;20130;-76
2021/09/04 01:05:14;;;;;;;1.92;1.70;;;14.40;81.90;;;;;;5137680;27;20053;-76
2021/09/04 01:07:40;;;;;;;2.85;1.83;;;14.30;81.90;;;;;;5137514;27;20019;-76
2021/09/04 01:10:08;;;;;;;2.40;1.85;;;14.30;82.00;;;;;;5137499;27;20019;-76
2021/09/04 01:12:34;;;;;;;2.28;1.52;;;14.30;82.00;;;;;;5137299;27;20031;-77
2021/09/04 01:14:59;;;;;;;1.60;1.35;;;14.30;82.00;;;;;;5137023;27;20068;-76
2021/09/04 01:17:25;;;;;;;2.05;1.52;;;14.30;82.10;;;;;;5136903;27;20019;-76
2021/09/04 01:19:50;;;;;;;2.13;1.33;;;14.30;82.10;;;;;;5137095;27;20083;-76
2021/09/04 01:22:17;;;;;;;2.05;1.58;;;14.30;82.00;;;;;;5137184;27;20109;-76
2021/09/04 01:24:48;;;;;;;2.95;1.50;;;14.30;82.00;;;;;;5137240;27;20015;-76
2021/09/04 01:27:16;;;;;;;1.88;1.30;;;14.30;82.00;;;;;;5137522;27;20160;-75
2021/09/04 01:29:41;;;;;;;2.33;1.10;;;14.30;82.00;;;;;;5136859;27;20027;-77
2021/09/04 01:32:07;;;;;;;2.28;1.80;;;14.30;82.00;;;;;;5136372;27;20025;-75
2021/09/04 01:34:32;;;;;;;2.53;1.40;;;14.20;82.00;;;;;;5136993;27;20030;-76
2021/09/04 01:36:58;;;;;;;2.30;1.52;;;14.20;82.00;;;;;;5118255;27;20039;-75
2021/09/04 01:39:23;;;;;;;1.95;1.45;;;14.20;82.10;;;;;;5136752;27;20479;-76
2021/09/04 01:41:50;;;;;;;2.03;1.75;;;14.10;82.20;;;;;;5136657;27;20027;-76
2021/09/04 01:44:16;;;;;;;2.85;1.55;;;14.10;82.20;;;;;;5136710;27;20023;-76
2021/09/04 01:46:41;;;;;;;1.58;1.33;;;14.10;82.10;;;;;;5136270;27;20019;-77
2021/09/04 01:49:07;;;;;;;1.90;1.02;;;14.10;82.10;;;;;;5136556;27;20483;-77
2021/09/04 01:51:33;;;;;;;2.03;1.45;;;14.10;82.20;;;;;;5136735;27;20435;-77
2021/09/04 01:53:59;;;;;;;2.67;1.40;;;14.10;82.30;;;;;;5136562;27;20023;-77
2021/09/04 01:56:25;;;;;;;1.77;1.40;;;14.00;82.30;;;;;;5136360;27;20019;-76
2021/09/04 01:58:50;;;;;;;1.15;1.05;;;14.10;82.30;;;;;;5136432;27;20371;-76
2021/09/04 02:01:16;;;;;;;2.08;1.20;;;14.00;82.30;;;;;;5136066;27;20027;-76
2021/09/04 02:03:41;;;;;;;1.42;1.20;;;14.00;82.30;;;;;;5136304;27;20042;-76
2021/09/04 02:06:07;;;;;;;2.08;1.42;;;14.00;82.40;;;;;;5136471;27;20042;-77
2021/09/04 02:08:33;;;;;;;1.73;1.30;;;14.00;82.50;;;;;;5136169;27;20544;-76
2021/09/04 02:10:59;;;;;;;1.25;1.15;;;13.90;82.50;;;;;;5136201;27;20043;-76
2021/09/04 02:13:25;;;;;;;3.22;2.10;;;13.90;82.70;;;;;;5136156;27;20029;-75
2021/09/04 02:15:51;;;;;;;3.80;2.13;;;13.90;82.70;;;;;;5135680;27;20023;-76
2021/09/04 02:18:17;;;;;;;3.13;1.67;;;13.80;82.60;;;;;;5136157;27;20417;-76
2021/09/04 02:20:43;;;;;;;2.58;1.92;;;13.90;82.70;;;;;;5136120;27;20035;-76
2021/09/04 02:23:08;;;;;;;2.33;1.38;;;13.90;82.70;;;;;;5135814;27;20053;-77
2021/09/04 02:25:35;;;;;;;2.17;1.33;;;13.90;82.70;;;;;;5135925;27;20046;-77
2021/09/04 02:28:01;;;;;;;2.55;1.50;;;13.90;82.60;;;;;;5135753;27;20023;-76
2021/09/04 02:30:27;;;;;;;3.33;1.92;;;13.90;82.60;;;;;;5135306;27;20046;-76
2021/09/04 02:32:52;;;;;;;2.97;1.60;;;13.90;82.50;;;;;;5135781;27;20059;-76
2021/09/04 02:35:18;;;;;;;1.98;1.20;;;14.00;82.60;;;;;;5135727;27;20023;-75
2021/09/04 02:37:43;;;;;;;2.38;1.63;;;14.00;82.50;;;;;;5135775;27;20020;-76
2021/09/04 02:40:09;;;;;;;2.20;1.40;;;14.10;82.60;;;;;;5135417;27;20042;-77
2021/09/04 02:42:35;;;;;;;2.85;1.50;;;14.10;82.50;;;;;;5135484;27;20031;-76
2021/09/04 02:45:01;;;;;;;2.95;1.83;;;14.10;82.40;;;;;;5135055;27;20023;-76
2021/09/04 02:47:26;;;;;;;1.75;1.27;;;14.20;82.40;;;;;;5134798;27;20544;-76
2021/09/04 02:49:52;;;;;;;2.13;1.50;;;14.20;82.40;;;;;;5135425;27;20024;-76
2021/09/04 02:52:17;;;;;;;1.85;1.30;;;14.20;82.50;;;;;;5135316;27;20050;-76
2021/09/04 02:54:43;;;;;;;1.58;1.23;;;14.20;82.40;;;;;;5135320;27;20418;-76
2021/09/04 02:57:08;;;;;;;2.15;1.40;;;14.20;82.40;;;;;;5135306;27;20027;-77
2021/09/04 02:59:37;;;;;;;2.80;1.42;;;14.30;83.10;;;;;;5134954;27;20031;-77
2021/09/04 03:02:02;;;;;;;2.50;1.45;;;14.30;82.50;;;;;;5135162;27;20022;-77
2021/09/04 03:04:28;;;;;;;1.33;1.17;;;14.30;82.50;;;;;;5135046;27;20035;-77
2021/09/04 03:06:53;;;;;;;2.20;1.45;;;14.30;82.50;;;;;;5135210;27;20020;-77
2021/09/04 03:09:19;;;;;;;2.63;1.67;;;14.30;82.60;;;;;;5134947;27;20019;-76
2021/09/04 03:11:44;;;;;;;2.00;1.40;;;14.30;82.60;;;;;;5134912;27;20016;-77
2021/09/04 03:14:10;;;;;;;1.75;1.45;;;14.30;82.60;;;;;;5134706;27;20460;-75
2021/09/04 03:16:35;;;;;;;1.95;1.30;;;14.30;82.70;;;;;;5135024;27;20019;-76
2021/09/04 03:19:01;;;;;;;2.35;1.58;;;14.30;82.70;;;;;;5134824;27;20110;-76
2021/09/04 03:21:27;;;;;;;2.42;1.88;;;14.30;82.90;;;;;;5134747;27;20371;-75
2021/09/04 03:23:53;;;;;;;2.50;1.50;;;14.30;82.90;;;;;;5134770;27;20487;-76
2021/09/04 03:26:18;;;;;;;2.90;1.77;;;14.30;82.80;;;;;;5134697;27;20023;-77
2021/09/04 03:28:44;;;;;;;2.53;1.50;;;14.30;82.80;;;;;;5134188;27;20490;-76
2021/09/04 03:31:09;;;;;;;2.65;1.60;;;14.30;82.80;;;;;;5134728;27;20023;-77
2021/09/04 03:33:35;;;;;;;2.20;1.60;;;14.30;82.90;;;;;;5134647;27;20058;-76
2021/09/04 03:36:01;;;;;;;2.45;1.50;;;14.30;83.00;;;;;;5134554;27;20501;-76
2021/09/04 03:38:27;;;;;;;2.00;1.40;;;14.30;83.00;;;;;;5134469;27;20479;-76
2021/09/04 03:40:52;;;;;;;1.85;1.10;;;14.40;83.10;;;;;;5134572;27;20027;-77
2021/09/04 03:43:18;;;;;;;2.53;1.60;;;14.40;83.00;;;;;;5134005;27;20059;-76
2021/09/04 03:45:43;;;;;;;2.00;1.42;;;14.40;83.00;;;;;;5134523;27;20022;-77
2021/09/04 03:48:09;;;;;;;1.88;1.33;;;14.40;83.00;;;;;;5134403;27;20030;-75
2021/09/04 03:50:34;;;;;;;2.05;1.38;;;14.40;83.00;;;;;;5134350;27;20070;-76
2021/09/04 03:53:00;;;;;;;2.17;1.42;;;14.40;83.00;;;;;;5134337;27;20023;-77
2021/09/04 03:55:26;;;;;;;1.77;1.48;;;14.40;83.10;;;;;;5134380;27;20030;-77
2021/09/04 03:57:51;;;;;;;1.80;1.52;;;14.50;83.10;;;;;;5133921;27;20083;-75
2021/09/04 04:00:17;;;;;;;1.63;1.50;;;14.40;83.10;;;;;;5134288;27;20038;-76
2021/09/04 04:02:42;;;;;;;1.38;1.27;;;14.50;83.20;;;;;;5134198;27;20035;-76
2021/09/04 04:05:08;;;;;;;2.47;1.60;;;14.50;83.10;;;;;;5134211;28;20068;-76
2021/09/04 04:07:34;;;;;;;3.05;1.42;;;14.50;83.00;;;;;;5115770;28;20023;-76
2021/09/04 04:10:00;;;;;;;2.03;1.23;;;14.60;83.00;;;;;;5134189;28;20020;-75
2021/09/04 04:12:25;;;;;;;1.30;1.17;;;14.60;82.90;;;;;;5133802;28;20387;-75
2021/09/04 04:14:51;;;;;;;1.52;1.30;;;14.60;83.00;;;;;;5134199;28;20031;-76
2021/09/04 04:17:16;;;;;;;1.88;1.10;;;14.60;83.10;;;;;;5134290;28;20020;-76
2021/09/04 04:19:42;;;;;;;1.20;1.10;;;14.50;83.20;;;;;;5134007;28;20530;-76
2021/09/04 04:22:08;;;;;;;1.70;1.40;;;14.50;83.40;;;;;;5134011;28;20031;-76
2021/09/04 04:24:34;;;;;;;1.30;1.00;;;14.50;83.40;;;;;;5133840;28;20087;-76
2021/09/04 04:27:01;;;;;;;1.83;1.30;;;14.50;83.40;;;;;;5133732;28;20471;-76
2021/09/04 04:29:27;;;;;;;2.55;1.50;;;14.50;83.40;;;;;;5134083;28;20391;-75
2021/09/04 04:31:53;;;;;;;1.98;1.30;;;14.50;83.60;;;;;;5133933;28;20155;-77
2021/09/04 04:34:18;;;;;;;2.05;1.67;;;14.50;83.50;;;;;;5133927;28;20064;-76
2021/09/04 04:36:44;;;;;;;1.88;1.40;;;14.50;83.60;;;;;;5133955;28;20527;-76
2021/09/04 04:39:09;;;;;;;1.60;1.27;;;14.50;83.60;;;;;;5134029;28;20471;-77
2021/09/04 04:41:35;;;;;;;1.88;1.40;;;14.60;83.50;;;;;;5133570;28;20051;-77
2021/09/04 04:44:01;;;;;;;1.58;1.17;;;14.60;83.40;;;;;;5115334;28;20041;-75
2021/09/04 04:46:26;;;;;;;2.35;1.67;;;14.60;83.50;;;;;;5133825;28;20015;-75
2021/09/04 04:48:52;;;;;;;3.05;2.03;;;14.60;83.60;;;;;;5133938;28;20100;-78
2021/09/04 04:51:17;;;;;;;1.77;1.20;;;14.60;83.60;;;;;;5133774;28;20417;-77
2021/09/04 04:53:43;;;;;;;2.35;1.88;;;14.60;83.60;;;;;;5133805;28;20030;-77
2021/09/04 04:56:08;;;;;;;3.75;1.88;;;14.60;83.60;;;;;;5133363;28;20414;-78
2021/09/04 04:58:34;;;;;;;2.22;1.67;;;14.70;83.60;;;;;;5133916;28;20368;-77
2021/09/04 05:00:59;;;;;;;2.35;1.33;;;14.60;83.60;;;;;;5133734;28;20051;-77
2021/09/04 05:03:25;;;;;;;2.58;2.00;;;14.50;83.90;;;;;;5133877;28;20027;-77
2021/09/04 05:05:51;;;;;;;2.72;1.52;;;14.50;84.00;;;;;;5133573;28;20491;-77
2021/09/04 05:08:17;;;;;;;1.70;1.52;;;14.50;84.10;;;;;;5133726;28;20038;-77
2021/09/04 05:10:42;;;;;;;1.98;1.05;;;14.50;84.10;;;;;;5134522;27;20086;-76
2021/09/04 05:13:08;;;;;;;1.70;1.35;;;14.60;84.10;;;;;;5119052;27;20035;-77
2021/09/04 05:15:34;;;;;;;1.67;1.38;;;14.60;83.90;;;;;;5137406;27;20019;-77
2021/09/04 05:17:59;;;;;;;2.60;1.50;;;14.70;83.90;;;;;;5137243;27;20127;-77
2021/09/04 05:20:25;;;;;;;1.65;1.40;;;14.70;83.80;;;;;;5137045;27;20047;-77
2021/09/04 05:22:50;;;;;;;1.65;1.05;;;14.70;83.80;;;;;;5137648;27;20039;-76
2021/09/04 05:25:17;;;;;;;1.90;1.45;;;14.70;83.80;;;;;;5136635;27;20015;-76
2021/09/04 05:27:43;;;;;;;1.17;1.05;;;14.70;83.80;;;;;;5137172;27;20027;-77
2021/09/04 05:30:09;;;;;;;2.10;1.50;;;14.70;83.80;;;;;;5118795;27;20023;-76
2021/09/04 05:32:35;;;;;;;1.90;1.38;;;14.80;83.80;;;;;;5137100;27;20433;-77
2021/09/04 05:35:00;;;;;;;1.88;1.23;;;14.80;84.00;;;;;;5137143;27;20019;-76
2021/09/04 05:37:27;;;;;;;2.75;1.60;;;14.80;83.80;;;;;;5137154;27;20035;-76
2021/09/04 05:39:53;;;;;;;2.33;1.60;;;14.80;83.80;;;;;;5136603;27;20428;-76
2021/09/04 05:42:18;;;;;;;4.07;2.70;;;14.90;83.80;;;;;;5136852;27;20076;-76
2021/09/04 05:44:44;;;;;;;3.83;2.05;;;14.90;83.80;;;;;;5137062;27;20027;-77
2021/09/04 05:47:10;;;;;;;2.35;1.38;;;14.80;83.80;;;;;;5136771;27;20038;-76
2021/09/04 05:49:35;;;;;;;2.65;1.70;;;14.80;84.00;;;;;;5137114;27;20023;-76
2021/09/04 05:52:01;;;;;;;2.70;1.75;;;14.80;84.00;;;;;;5136675;27;20102;-76
2021/09/04 05:54:27;;;;;;;2.33;1.50;;;14.90;83.90;;;;;;5136148;27;20387;-77
2021/09/04 05:56:53;;;;;;;2.22;1.70;;;14.90;83.80;;;;;;5136564;27;20402;-77
2021/09/04 05:59:18;;;;;;;2.85;1.38;;;14.80;83.80;;;;;;5118072;27;20394;-77
2021/09/04 06:01:44;;;;;;;2.00;1.40;;;14.90;84.00;;;;;;5136434;27;20027;-77
2021/09/04 06:04:09;;;;;;;3.30;1.92;;;14.90;84.00;;;;;;5136237;27;20035;-77
2021/09/04 06:06:35;;;;;;;1.60;1.13;;;14.90;83.90;;;;;;5136107;27;20026;-76
2021/09/04 06:09:02;;;;;;;2.75;1.77;;;14.90;83.80;;;;;;5135822;27;20098;-76
2021/09/04 06:11:29;;;;;;;2.63;1.85;;;15.00;83.80;;;;;;5118055;27;20030;-76
2021/09/04 06:13:54;;;;;;;3.63;2.08;;;15.00;83.80;;;;;;5136176;27;20026;-76
2021/09/04 06:16:20;;;;;;;3.30;1.80;;;15.00;83.70;;;;;;5136142;27;20031;-76
2021/09/04 06:18:45;;;;;;;1.83;1.50;;;15.10;83.80;;;;;;5135904;27;20051;-76
2021/09/04 06:21:11;;;;;;;2.63;2.10;;;15.10;83.70;;;;;;5135563;27;20050;-76
2021/09/04 06:23:36;;;;;;;1.88;1.40;;;15.10;83.60;;;;;;5134760;27;20079;-75
2021/09/04 06:26:02;;;;;;;3.67;1.90;;;15.00;83.80;;;;;;5135885;27;20060;-76
2021/09/04 06:28:27;;;;;;;2.80;1.60;;;15.00;84.00;;;;;;5119982;27;20412;-76
2021/09/04 06:30:53;;;;;;;1.65;1.35;;;15.00;83.90;;;;;;5112410;28;20016;-75
2021/09/04 06:33:18;;;;;;;2.42;1.70;;;15.10;83.90;;;;;;5112389;28;20483;-76
2021/09/04 06:35:44;;;;;;;3.03;1.75;;;15.10;83.70;;;;;;5112385;28;20023;-75
2021/09/04 06:38:09;;;;;;;2.80;1.58;;;15.10;83.60;;;;;;5093811;28;20020;-75
2021/09/04 06:40:35;;;;;;;2.67;1.70;;;15.10;83.80;;;;;;5111903;28;20076;-75
2021/09/04 06:43:00;;;;;;;2.08;1.60;;;15.10;83.80;;;;;;5112149;28;20035;-75
2021/09/04 06:45:26;;;;;;;2.65;1.42;;;15.20;83.80;;;;;;5112323;28;20012;-76
2021/09/04 06:47:52;;;;;;;2.83;1.50;;;15.20;83.80;;;;;;5093942;28;20050;-76
2021/09/04 06:50:18;;;;;;;1.95;1.65;;;15.20;83.80;;;;;;5111954;28;20027;-75
2021/09/04 06:52:44;;;;;;;2.33;1.50;;;15.20;83.70;;;;;;5111242;28;20100;-74
2021/09/04 06:55:10;;;;;;;2.53;1.70;;;15.20;83.60;;;;;;5112119;28;20444;-75
2021/09/04 06:57:35;;;;;;;1.70;1.10;;;15.20;83.60;;;;;;5111745;28;20031;-76
2021/09/04 07:00:01;;;;;;;1.92;1.38;;;15.30;83.60;;;;;;5111889;28;20022;-74
2021/09/04 07:02:26;;;;;;;2.33;1.50;;;15.30;83.50;;;;;;5111717;28;20034;-74
2021/09/04 07:04:54;;;;;;;2.15;1.63;;;15.40;83.40;;;;;;5093275;28;20031;-74
2021/09/04 07:07:20;;;;;;;2.22;1.50;;;15.40;83.30;;;;;;5111830;28;20035;-74
2021/09/04 07:09:45;;;;;;;3.30;2.10;;;15.50;83.10;;;;;;5112137;28;20114;-75
2021/09/04 07:12:11;;;;;;;1.88;1.40;;;15.50;83.10;;;;;;5111630;28;20098;-75
2021/09/04 07:14:36;;;;;;;2.17;1.42;;;15.50;83.20;;;;;;5093261;28;20023;-75
2021/09/04 07:17:02;;;;;;;2.13;1.50;;;15.50;83.10;;;;;;5111229;28;20023;-74
2021/09/04 07:19:28;;;;;;;2.70;1.73;;;15.60;83.10;;;;;;5110828;28;20063;-74
2021/09/04 07:21:53;;;;;;;2.30;1.50;;;15.60;83.10;;;;;;5111405;28;20028;-73
2021/09/04 07:24:19;;;;;;;2.13;1.48;;;15.70;83.00;;;;;;5111310;28;20500;-74
2021/09/04 07:26:44;;;;;;;2.88;1.67;;;15.70;82.90;;;;;;5112402;27;20027;-74
2021/09/04 07:29:09;;;;;;;1.45;1.10;;;15.70;82.90;;;;;;5113155;27;20027;-75
2021/09/04 07:31:35;;;;;;;3.10;2.03;;;15.70;82.90;;;;;;5133816;27;20033;-75
2021/09/04 07:34:00;;;;;;;2.63;1.95;;;15.80;82.90;;;;;;5132673;27;20547;-74
2021/09/04 07:36:26;;;;;;;1.63;1.48;;;15.80;82.80;;;;;;5134147;27;20034;-76
2021/09/04 07:38:52;;;;;;;2.53;1.58;;;15.90;82.80;;;;;;5116114;27;20048;-76
2021/09/04 07:41:17;;;;;;;3.72;2.03;;;15.90;82.70;;;;;;5134689;27;20053;-76
2021/09/04 07:43:43;;;;;;;2.10;1.42;;;16.00;82.60;;;;;;5134388;27;20031;-79
2021/09/04 07:46:08;;;;;;;2.00;1.40;;;16.00;82.50;;;;;;5134470;27;20056;-76
2021/09/04 07:48:34;;;;;;;2.88;1.83;;;16.00;82.60;;;;;;5134056;27;20023;-78
2021/09/04 07:50:59;;;;;;;1.90;1.73;;;16.00;82.70;;;;;;5115985;27;20072;-78
2021/09/04 07:53:25;;;;;;;1.80;1.40;;;16.00;82.60;;;;;;5134406;27;20111;-79
2021/09/04 07:55:50;;;;;;;2.05;1.80;;;16.00;82.60;;;;;;5134287;27;20030;-78
2021/09/04 07:58:16;;;;;;;2.05;1.23;;;16.10;82.60;;;;;;5134476;27;20479;-78
2021/09/04 08:00:41;;;;;;;2.03;1.52;;;16.10;82.50;;;;;;5134378;27;20373;-78
2021/09/04 08:03:07;;;;;;;2.75;1.70;;;16.20;82.50;;;;;;5115328;27;20433;-79
2021/09/04 08:05:33;;;;;;;2.17;1.40;;;16.30;82.40;;;;;;5134214;27;20015;-79
2021/09/04 08:07:58;;;;;;;2.45;1.50;;;16.30;82.10;;;;;;5134200;28;20031;-78
2021/09/04 08:10:24;;;;;;;2.30;1.70;;;16.40;82.30;;;;;;5134179;28;20022;-77
2021/09/04 08:12:49;;;;;;;1.73;1.20;;;16.50;82.10;;;;;;5115856;28;20372;-78
2021/09/04 08:15:15;;;;;;;1.58;1.48;;;16.40;82.00;;;;;;5115826;28;20379;-76
2021/09/04 08:17:41;;;;;;;2.28;1.60;;;16.50;82.00;;;;;;5115135;28;20517;-76
2021/09/04 08:20:07;;;;;;;1.90;1.33;;;16.50;82.00;;;;;;5115633;28;20122;-77
2021/09/04 08:22:33;;;;;;;2.42;1.58;;;16.50;82.00;;;;;;5134044;28;20030;-77
2021/09/04 08:24:58;;;;;;;1.55;1.40;;;16.50;82.00;;;;;;5133961;28;20027;-77
2021/09/04 08:27:24;;;;;;;2.17;1.80;;;16.60;82.20;;;;;;5112242;28;20015;-77
2021/09/04 08:29:49;;;;;;;1.63;1.27;;;16.70;81.60;;;;;;5111998;28;20468;-77
2021/09/04 08:32:15;;;;;;;2.03;1.50;;;16.80;81.50;;;;;;5131420;28;20371;-77
2021/09/04 08:34:40;;;;;;;2.10;1.63;;;16.90;81.40;;;;;;5114484;28;20019;-77
2021/09/04 08:37:06;;;;;;;2.55;1.45;;;17.00;81.30;;;;;;5133500;28;20023;-78
2021/09/04 08:39:31;;;;;;;1.45;1.23;;;17.10;81.10;;;;;;5133873;28;20024;-76
2021/09/04 08:41:57;;;;;;;2.03;1.30;;;17.20;81.00;;;;;;5133872;28;20022;-77
2021/09/04 08:44:23;;;;;;;1.77;1.50;;;17.30;81.10;;;;;;5130811;27;20035;-77
2021/09/04 08:46:50;;;;;;;2.03;1.35;;;17.40;81.00;;;;;;5133802;27;20023;-77
2021/09/04 08:49:16;;;;;;;2.15;1.50;;;17.50;80.70;;;;;;5135041;27;20033;-77
2021/09/04 08:51:41;;;;;;;1.45;1.20;;;17.60;80.70;;;;;;5132433;27;20458;-75
2021/09/04 08:54:07;;;;;;;2.55;1.95;;;17.60;80.70;;;;;;5135963;27;20021;-77
2021/09/04 08:56:33;;;;;;;2.58;1.58;;;17.50;80.70;;;;;;5136115;27;20029;-77
2021/09/04 08:58:59;;;;;;;2.42;1.88;;;17.60;80.90;;;;;;5137659;27;20038;-75
2021/09/04 09:01:27;;;;;;;1.40;1.25;;;17.50;80.90;;;;;;5118230;27;20067;-76
2021/09/04 09:03:55;;;;;;;1.60;1.50;;;17.60;80.90;;;;;;5137446;27;20078;-76
2021/09/04 09:06:28;;;;;;;1.95;1.48;;;17.60;80.90;;;;;;5137251;27;20023;-76
2021/09/04 09:08:54;;;;;;;1.05;0.95;;;17.50;80.80;;;;;;5137441;27;20047;-75
2021/09/04 09:11:20;;;;;;;2.00;1.52;;;17.50;81.00;;;;;;5137492;27;20529;-77
2021/09/04 09:13:47;;;;;;;2.20;1.65;;;17.60;81.10;;;;;;5137304;27;20027;-76
2021/09/04 09:16:15;;;;;;;3.35;1.80;;;17.50;81.10;;;;;;5136903;27;20019;-77
2021/09/04 09:18:41;;;;;;;1.80;1.48;;;17.50;81.10;;;;;;5118378;27;20066;-76
2021/09/04 09:21:06;;;;;;;2.47;1.58;;;17.40;81.20;;;;;;5137351;27;20061;-76
2021/09/04 09:23:32;;;;;;;1.77;1.30;;;17.30;81.30;;;;;;5118683;27;20065;-76
2021/09/04 09:26:11;;;;;;;3.00;2.10;;;17.40;81.30;;;;;;5137098;27;20094;-75
2021/09/04 09:28:37;;;;;;;1.85;1.73;;;17.60;80.90;;;;;;5136985;27;20064;-77
2021/09/04 09:31:03;;;;;;;2.03;1.83;;;17.60;80.90;;;;;;5136492;27;20015;-76
2021/09/04 09:33:29;;;;;;;2.13;1.83;;;17.50;80.90;;;;;;5118517;27;20027;-77
2021/09/04 09:36:00;;;;;;;3.03;1.85;;;17.50;81.00;;;;;;5136969;27;20198;-77
2021/09/04 09:38:32;;;;;;;3.03;1.98;;;17.60;81.00;;;;;;5137055;27;20020;-76
2021/09/04 09:40:59;;;;;;;1.73;1.23;;;17.70;80.80;;;;;;5136775;27;20126;-76
2021/09/04 09:43:33;;;;;;;1.73;1.60;;;17.80;80.70;;;;;;5136735;27;20035;-77
2021/09/04 09:46:00;;;;;;;2.50;2.00;;;17.90;80.70;;;;;;5136174;27;20023;-78
2021/09/04 09:48:28;;;;;;;2.78;1.60;;;17.90;80.60;;;;;;5136728;27;20031;-78
2021/09/04 09:50:56;;;;;;;2.85;1.85;;;18.00;80.50;;;;;;5136638;27;20015;-76
2021/09/04 09:53:23;;;;;;;1.23;0.90;;;18.10;80.30;;;;;;5136369;27;20103;-79
2021/09/04 09:55:51;;;;;;;1.88;1.60;;;18.20;80.30;;;;;;5136402;27;20022;-77
2021/09/04 09:58:19;;;;;;;1.45;1.00;;;18.30;80.20;;;;;;5136578;27;20452;-77
2021/09/04 10:00:44;;;;;;;3.08;1.40;;;18.40;80.10;;;;;;5136040;27;20459;-76
2021/09/04 10:03:12;;;;;;;1.10;1.00;;;18.40;80.10;;;;;;5136393;27;20080;-76
2021/09/04 10:05:38;;;;;;;1.40;0.98;;;18.40;80.10;;;;;;5136449;27;20043;-77
2021/09/04 10:08:04;;;;;;;1.52;1.25;;;18.50;80.00;;;;;;5135973;27;20066;-76
2021/09/04 10:10:35;;;;;;;1.27;1.08;;;18.60;79.90;;;;;;5136431;27;20098;-77
2021/09/04 10:13:02;;;;;;;1.92;1.35;;;18.70;79.90;;;;;;5136228;27;20094;-76
2021/09/04 10:15:31;;;;;;;2.60;1.40;;;18.70;79.90;;;;;;5135770;27;20023;-77
2021/09/04 10:18:00;;;;;;;1.80;1.33;;;18.80;79.80;;;;;;5117508;27;20027;-76
2021/09/04 10:20:27;;;;;;;2.03;1.83;;;18.80;79.70;;;;;;5136056;27;20122;-81
2021/09/04 10:23:09;;;;;;;1.42;1.20;;;18.80;79.70;;;;;;5117487;27;20451;-74
2021/09/04 10:25:35;;;;;;;2.72;1.55;;;18.90;79.60;;;;;;5117711;27;20027;-79
2021/09/04 10:28:02;;;;;;;1.15;1.05;;;19.00;79.50;;;;;;5135483;27;20019;-78
2021/09/04 10:30:34;;;;;;;1.70;1.48;;;19.10;79.40;;;;;;5117268;27;20027;-78
2021/09/04 10:33:11;;;;;;;1.58;1.30;;;19.10;79.40;;;;;;5135836;27;20019;-78
2021/09/04 10:35:41;;;;;;;1.38;1.27;;;19.20;79.40;;;;;;5135966;27;20027;-76
2021/09/04 10:38:19;;;;;;;1.40;1.02;;;19.20;79.40;;;;;;5117318;27;20019;-74
2021/09/04 10:40:49;;;;;;;1.42;1.23;;;19.30;79.30;;;;;;5135671;27;20027;-76
2021/09/04 10:43:16;;;;;;;1.73;1.40;;;19.40;79.20;;;;;;5134984;27;20046;-74
2021/09/04 10:45:49;;;;;;;1.40;1.30;;;19.40;79.00;;;;;;5135459;27;20019;-75
2021/09/04 10:48:22;;;;;;;1.58;1.45;;;19.40;79.00;;;;;;5135556;27;20023;-75
2021/09/04 10:51:11;;;;;;;1.35;0.98;;;19.40;79.00;;;;;;5117161;27;20019;-77
2021/09/04 10:53:51;;;;;;;1.20;1.02;;;19.50;79.00;;;;;;5135386;27;20060;-77
2021/09/04 10:56:22;;;;;;;1.33;1.23;;;19.60;78.80;;;;;;5117008;27;20022;-77
2021/09/04 10:58:51;;;;;;;2.22;1.50;;;19.70;78.70;;;;;;5116273;27;20118;-75
2021/09/04 11:01:18;;;;;;;1.40;1.30;;;19.80;78.60;;;;;;5116755;27;20026;-76
2021/09/04 11:03:51;;;;;;;1.52;1.20;;;19.80;78.60;;;;;;5135121;27;20297;-75
2021/09/04 11:06:19;;;;;;;1.42;0.93;;;19.90;78.60;;;;;;5135002;27;20458;-76
2021/09/04 11:08:45;;;;;;;2.70;1.50;;;20.00;78.50;;;;;;5134571;27;20019;-75
2021/09/04 11:11:17;;;;;;;1.63;1.30;;;20.10;78.40;;;;;;5134925;27;20023;-76
2021/09/04 11:13:42;;;;;;;1.48;1.38;;;20.20;78.30;;;;;;5134677;27;20047;-74
2021/09/04 11:16:32;;;;;;;1.23;1.13;;;20.30;78.10;;;;;;5135078;27;20058;-76
2021/09/04 11:19:02;;;;;;;1.35;1.25;;;20.30;77.90;;;;;;5116403;27;20091;-76
2021/09/04 11:21:31;;;;;;;1.35;1.25;;;20.30;78.10;;;;;;5135153;27;20050;-75
2021/09/04 11:23:57;;;;;;;1.33;1.13;;;20.40;78.00;;;;;;5134814;27;20086;-76
2021/09/04 11:26:22;;;;;;;1.40;1.30;;;20.50;77.80;;;;;;5134398;27;20023;-75
2021/09/04 11:28:55;;;;;;;1.95;1.30;;;20.60;77.60;;;;;;5134884;27;20428;-75
2021/09/04 11:31:21;;;;;;;2.33;1.60;;;20.60;77.50;;;;;;5112958;27;20107;-75
2021/09/04 11:33:52;;;;;;;2.25;1.15;;;20.60;77.50;;;;;;5111297;28;20112;-74
2021/09/04 11:36:32;;;;;;;1.70;1.40;;;20.70;77.50;;;;;;5111203;28;20563;-75
2021/09/04 11:39:01;;;;;;;2.15;1.75;;;20.70;77.20;;;;;;5111157;28;20049;-76
2021/09/04 11:41:27;;;;;;;2.17;1.40;;;20.70;77.20;;;;;;5110464;28;20418;-76
2021/09/04 11:43:53;;;;;;;2.58;1.88;;;20.70;77.20;;;;;;5111261;28;20027;-75
2021/09/04 11:46:26;;;;;;;2.10;1.70;;;20.70;77.20;;;;;;5111135;28;20026;-75
2021/09/04 11:48:56;;;;;;;2.67;1.73;;;20.70;77.10;;;;;;5092739;28;20418;-76
2021/09/04 11:51:22;;;;;;;2.33;1.52;;;20.70;77.10;;;;;;5092691;28;20019;-76
2021/09/04 11:53:57;;;;;;;3.30;2.30;;;20.80;77.20;;;;;;5110692;28;20077;-75
2021/09/04 11:56:23;;;;;;;2.58;1.60;;;20.80;76.80;;;;;;5116543;27;20090;-75
2021/09/04 11:58:48;;;;;;;2.25;1.80;;;20.70;77.20;;;;;;5127864;27;20110;-76
2021/09/04 12:01:14;;;;;;;1.75;1.52;;;20.70;77.10;;;;;;5114379;27;20016;-75
2021/09/04 12:03:40;;;;;;;3.03;1.95;;;20.90;77.00;;;;;;5133651;27;20464;-77
2021/09/04 12:06:08;;;;;;;1.63;1.27;;;21.10;76.80;;;;;;5134211;27;20023;-75
2021/09/04 12:08:34;;;;;;;1.60;1.50;;;21.30;76.30;;;;;;5134142;28;20472;-75
2021/09/04 12:11:02;;;;;;;2.13;1.52;;;21.50;75.90;;;;;;5115252;28;20540;-75
2021/09/04 12:13:29;;;;;;;1.48;1.25;;;21.70;75.60;;;;;;5115814;28;20023;-76
2021/09/04 12:15:57;;;;;;;1.17;1.08;;;21.80;75.50;;;;;;5134093;28;20027;-75
2021/09/04 12:18:28;;;;;;;2.03;1.50;;;21.90;75.50;;;;;;5133966;28;20023;-74
2021/09/04 12:20:54;;;;;;;2.42;1.83;;;21.90;75.50;;;;;;5136170;27;20029;-75
2021/09/04 12:23:27;;;;;;;1.75;1.50;;;21.80;75.60;;;;;;5119924;27;20027;-76
2021/09/04 12:26:03;;;;;;;2.33;1.40;;;21.80;75.90;;;;;;5137870;27;20030;-75
2021/09/04 12:28:29;;;;;;;1.33;1.02;;;21.90;76.10;;;;;;5138105;27;20027;-75
2021/09/04 12:31:06;;;;;;;1.63;1.45;;;22.20;75.50;;;;;;5138177;27;20016;-75
2021/09/04 12:33:37;;;;;;;2.00;1.48;;;22.60;74.80;;;;;;5138137;27;20076;-76
2021/09/04 12:36:07;;;;;;;1.80;1.60;;;22.80;74.30;;;;;;5119630;27;20023;-77
2021/09/04 12:38:44;;;;;;;2.00;1.40;;;22.90;74.30;;;;;;5119049;27;20023;-76
2021/09/04 12:41:13;;;;;;;2.00;1.20;;;23.00;74.20;;;;;;5137782;27;20536;-77
2021/09/04 12:43:59;;;;;;;1.42;1.20;;;23.30;74.00;;;;;;5138026;27;20134;-77
2021/09/04 12:46:28;;;;;;;1.45;1.35;;;23.60;73.40;;;;;;5119556;27;20027;-76